Time;durP1;ratioP1;P1;durP2;ratioP2;P2;SDS_P1;SDS_P2;PMS_P1;PMS_P2;Temp;Humidity;BMP_temperature;BMP_pressure;BME280_temperature;BME280_humidity;BME280_pressure;Samples;Min_cycle;Max_cycle;Signal;HPM_P1;HPM_P2
2021/11/06 00:19:15;;;;;;;35.80;5.62;;;;;;;;;;4313492;27;20183;-66
2021/11/06 00:21:41;;;;;;;29.80;3.90;;;;;;;;;;4289684;33;20127;-64
2021/11/06 00:24:07;;;;;;;35.15;5.97;;;;;;;;;;4276594;33;20444;-64
2021/11/06 00:26:32;;;;;;;25.85;4.75;;;;;;;;;;4275597;33;20464;-64
2021/11/06 00:28:58;;;;;;;27.95;4.72;;;;;;;;;;4275490;33;20104;-64
2021/11/06 00:31:24;;;;;;;24.23;4.28;;;;;;;;;;4275580;33;20128;-64
2021/11/06 00:33:50;;;;;;;38.58;5.43;;;;;;;;;;4275391;33;20206;-63
2021/11/06 00:36:17;;;;;;;26.55;4.87;;;;;;;;;;4275483;33;20112;-64
2021/11/06 00:38:43;;;;;;;22.83;4.12;;;;;;;;;;4274032;33;20582;-67
2021/11/06 00:41:08;;;;;;;28.77;4.62;;;;;;;;;;4275474;33;20235;-67
2021/11/06 00:43:34;;;;;;;26.35;4.60;;;;;;;;;;4273883;33;20143;-66
2021/11/06 00:46:00;;;;;;;27.30;4.40;;;;;;;;;;4273956;33;20223;-67
2021/11/06 00:48:26;;;;;;;29.67;4.03;;;;;;;;;;4275306;33;20131;-67
2021/11/06 00:50:52;;;;;;;22.65;4.60;;;;;;;;;;4261977;33;20131;-64
2021/11/06 00:53:18;;;;;;;20.35;3.35;;;;;;;;;;4275078;33;20103;-64
2021/11/06 00:55:44;;;;;;;22.67;3.53;;;;;;;;;;4275297;33;20124;-64
2021/11/06 00:58:09;;;;;;;25.52;4.10;;;;;;;;;;4273755;33;20210;-65
2021/11/06 01:00:35;;;;;;;34.83;4.65;;;;;;;;;;4275286;33;20207;-64
2021/11/06 01:03:01;;;;;;;25.80;4.20;;;;;;;;;;4275336;33;20468;-63
2021/11/06 01:05:27;;;;;;;32.10;5.43;;;;;;;;;;4274262;33;20222;-64
2021/11/06 01:07:53;;;;;;;21.77;3.90;;;;;;;;;;4275061;33;20111;-66
2021/11/06 01:10:19;;;;;;;24.37;5.07;;;;;;;;;;4275083;33;20515;-66
2021/11/06 01:12:45;;;;;;;11.88;3.95;;;;;;;;;;4275077;33;20104;-66
2021/11/06 01:15:12;;;;;;;28.05;5.00;;;;;;;;;;4274961;33;20444;-66
2021/11/06 01:17:39;;;;;;;20.40;4.62;;;;;;;;;;4273624;33;20104;-66
2021/11/06 01:20:05;;;;;;;29.23;4.95;;;;;;;;;;4261812;33;20115;-66
2021/11/06 01:22:31;;;;;;;23.02;4.82;;;;;;;;;;4274951;33;20122;-66
2021/11/06 01:24:57;;;;;;;34.33;4.95;;;;;;;;;;4274948;33;20207;-67
2021/11/06 01:27:23;;;;;;;29.52;5.05;;;;;;;;;;4274959;33;20209;-66
2021/11/06 01:29:49;;;;;;;31.33;5.05;;;;;;;;;;4261599;33;20124;-67
2021/11/06 01:32:15;;;;;;;12.07;3.53;;;;;;;;;;4274853;33;20119;-67
2021/11/06 01:34:41;;;;;;;24.75;3.78;;;;;;;;;;4274403;33;20216;-67
2021/11/06 01:37:07;;;;;;;24.55;4.15;;;;;;;;;;4275004;33;20108;-67
2021/11/06 01:39:33;;;;;;;29.70;4.47;;;;;;;;;;4274753;33;20093;-67
2021/11/06 01:41:58;;;;;;;25.05;4.75;;;;;;;;;;4249836;33;20215;-66
2021/11/06 01:44:24;;;;;;;30.40;4.80;;;;;;;;;;4274912;33;20096;-67
2021/11/06 01:46:51;;;;;;;27.45;5.40;;;;;;;;;;4274738;33;20120;-66
2021/11/06 01:49:20;;;;;;;22.23;3.97;;;;;;;;;;4261586;33;20112;-67
2021/11/06 01:51:50;;;;;;;23.27;3.83;;;;;;;;;;4274727;33;20122;-67
2021/11/06 01:54:16;;;;;;;25.52;4.55;;;;;;;;;;4274518;33;20088;-67
2021/11/06 01:56:42;;;;;;;26.52;3.28;;;;;;;;;;4274746;33;20496;-67
2021/11/06 01:59:09;;;;;;;19.75;4.03;;;;;;;;;;4274715;33;20131;-67
2021/11/06 02:01:35;;;;;;;24.92;4.28;;;;;;;;;;4274857;33;20113;-67
2021/11/06 02:04:02;;;;;;;26.48;4.30;;;;;;;;;;4261606;33;20154;-67
2021/11/06 02:06:28;;;;;;;16.85;3.58;;;;;;;;;;4261606;33;20131;-66
2021/11/06 02:08:54;;;;;;;23.58;3.78;;;;;;;;;;4274542;33;20139;-66
2021/11/06 02:11:20;;;;;;;17.80;3.55;;;;;;;;;;4261303;33;20223;-67
2021/11/06 02:13:45;;;;;;;25.75;4.37;;;;;;;;;;4261326;33;20522;-66
2021/11/06 02:16:11;;;;;;;16.45;3.97;;;;;;;;;;4274402;33;20109;-66
2021/11/06 02:18:37;;;;;;;16.45;3.70;;;;;;;;;;4261154;33;20147;-67
2021/11/06 02:21:07;;;;;;;23.58;4.03;;;;;;;;;;4260925;33;20139;-67
2021/11/06 02:23:38;;;;;;;19.25;4.07;;;;;;;;;;4274239;33;20124;-67
2021/11/06 02:26:04;;;;;;;19.85;5.53;;;;;;;;;;4274478;33;20192;-67
2021/11/06 02:28:30;;;;;;;31.45;5.45;;;;;;;;;;4260959;33;20115;-67
2021/11/06 02:30:56;;;;;;;16.85;3.90;;;;;;;;;;4274329;33;20123;-66
2021/11/06 02:33:22;;;;;;;28.27;5.55;;;;;;;;;;4274307;33;20471;-66
2021/11/06 02:35:48;;;;;;;32.28;4.65;;;;;;;;;;4274413;33;20199;-66
2021/11/06 02:38:14;;;;;;;26.45;4.40;;;;;;;;;;4272558;33;20207;-67
2021/11/06 02:40:40;;;;;;;31.02;5.20;;;;;;;;;;4260842;33;20111;-67
2021/11/06 02:43:06;;;;;;;31.20;5.05;;;;;;;;;;4274150;33;20143;-67
2021/11/06 02:45:32;;;;;;;31.55;4.03;;;;;;;;;;4276005;33;20096;-67
2021/11/06 02:47:58;;;;;;;35.90;5.15;;;;;;;;;;4276429;33;20096;-67
2021/11/06 02:50:24;;;;;;;24.77;4.93;;;;;;;;;;4276392;33;20096;-67
2021/11/06 02:52:50;;;;;;;20.05;4.30;;;;;;;;;;4276320;33;20180;-67
2021/11/06 02:55:16;;;;;;;25.12;4.43;;;;;;;;;;4277180;33;20100;-67
2021/11/06 02:57:42;;;;;;;15.43;2.60;;;;;;;;;;4277137;33;20107;-67
2021/11/06 03:00:09;;;;;;;22.08;4.10;;;;;;;;;;4276414;33;20121;-67
2021/11/06 03:02:35;;;;;;;25.23;3.65;;;;;;;;;;4263327;33;20103;-67
2021/11/06 03:05:08;;;;;;;23.52;5.10;;;;;;;;;;4276434;33;20121;-67
2021/11/06 03:07:34;;;;;;;19.48;3.80;;;;;;;;;;4276451;33;20630;-66
2021/11/06 03:10:00;;;;;;;16.80;3.42;;;;;;;;;;4262816;33;20208;-67
2021/11/06 03:12:26;;;;;;;25.00;4.15;;;;;;;;;;4251032;33;20124;-67
2021/11/06 03:14:52;;;;;;;21.42;4.53;;;;;;;;;;4262767;33;20229;-67
2021/11/06 03:17:18;;;;;;;23.42;4.72;;;;;;;;;;4262682;33;20142;-67
2021/11/06 03:19:44;;;;;;;32.67;4.45;;;;;;;;;;4262884;33;20093;-67
2021/11/06 03:22:10;;;;;;;21.40;4.05;;;;;;;;;;4262702;33;20113;-67
2021/11/06 03:24:37;;;;;;;20.42;4.15;;;;;;;;;;4276036;33;20107;-67
2021/11/06 03:27:03;;;;;;;21.58;3.50;;;;;;;;;;4262610;33;20219;-67
2021/11/06 03:29:29;;;;;;;21.55;4.20;;;;;;;;;;4276164;33;20115;-67
2021/11/06 03:31:55;;;;;;;23.02;4.65;;;;;;;;;;4275896;33;20123;-66
2021/11/06 03:34:21;;;;;;;14.77;3.70;;;;;;;;;;4275880;33;20116;-66
2021/11/06 03:36:47;;;;;;;21.02;4.87;;;;;;;;;;4262684;33;20142;-67
2021/11/06 03:39:13;;;;;;;23.52;4.07;;;;;;;;;;4275821;33;20523;-67
2021/11/06 03:41:39;;;;;;;21.17;4.62;;;;;;;;;;4276144;33;20088;-66
2021/11/06 03:44:05;;;;;;;21.85;5.30;;;;;;;;;;4251104;33;20127;-66
2021/11/06 03:46:32;;;;;;;28.65;5.55;;;;;;;;;;4262494;33;20103;-67
2021/11/06 03:48:58;;;;;;;21.52;4.35;;;;;;;;;;4275749;33;20096;-67
2021/11/06 03:51:24;;;;;;;20.98;5.20;;;;;;;;;;4275764;33;20292;-67
2021/11/06 03:53:50;;;;;;;18.90;4.75;;;;;;;;;;4262386;33;20222;-66
2021/11/06 03:56:16;;;;;;;27.65;5.40;;;;;;;;;;4262034;33;20092;-67
2021/11/06 03:58:42;;;;;;;28.62;5.03;;;;;;;;;;4276219;33;20108;-68
2021/11/06 04:01:08;;;;;;;21.20;4.15;;;;;;;;;;4275565;33;20182;-67
2021/11/06 04:03:34;;;;;;;30.62;5.60;;;;;;;;;;4275710;33;20124;-67
2021/11/06 04:06:00;;;;;;;31.10;6.55;;;;;;;;;;4275634;33;20100;-67
2021/11/06 04:08:26;;;;;;;25.05;6.57;;;;;;;;;;4275584;33;20219;-67
2021/11/06 04:10:52;;;;;;;34.88;7.40;;;;;;;;;;4275574;33;20103;-67
2021/11/06 04:13:18;;;;;;;27.23;8.23;;;;;;;;;;4275463;33;20218;-67
2021/11/06 04:15:44;;;;;;;37.08;8.15;;;;;;;;;;4262228;33;20112;-67
2021/11/06 04:18:10;;;;;;;34.15;5.85;;;;;;;;;;4275462;33;20177;-67
2021/11/06 04:20:36;;;;;;;31.37;5.68;;;;;;;;;;4262254;33;20136;-67
2021/11/06 04:23:02;;;;;;;29.80;6.37;;;;;;;;;;4275510;33;20615;-67
2021/11/06 04:25:28;;;;;;;26.75;5.05;;;;;;;;;;4275452;33;20092;-67
2021/11/06 04:27:54;;;;;;;23.35;5.35;;;;;;;;;;4275353;33;20189;-67
2021/11/06 04:30:20;;;;;;;18.27;4.62;;;;;;;;;;4275287;33;20516;-68
2021/11/06 04:32:46;;;;;;;31.35;6.35;;;;;;;;;;4262331;33;20095;-67
2021/11/06 04:35:12;;;;;;;26.02;5.57;;;;;;;;;;4275302;33;20207;-67
2021/11/06 04:37:38;;;;;;;23.23;5.65;;;;;;;;;;4275274;33;20519;-67
2021/11/06 04:40:08;;;;;;;28.12;5.70;;;;;;;;;;4250020;33;20226;-67
2021/11/06 04:42:34;;;;;;;24.98;4.90;;;;;;;;;;4274209;33;20280;-67
2021/11/06 04:45:00;;;;;;;26.23;4.78;;;;;;;;;;4275350;33;20591;-67
2021/11/06 04:47:25;;;;;;;25.37;5.53;;;;;;;;;;4262007;33;20105;-67
2021/11/06 04:49:51;;;;;;;26.77;5.53;;;;;;;;;;4262007;33;20172;-67
2021/11/06 04:52:17;;;;;;;23.75;4.95;;;;;;;;;;4275175;33;20531;-67
2021/11/06 04:54:43;;;;;;;32.65;6.93;;;;;;;;;;4275203;33;20108;-67
2021/11/06 04:57:09;;;;;;;28.05;5.37;;;;;;;;;;4275203;33;20214;-67
2021/11/06 04:59:35;;;;;;;33.72;5.82;;;;;;;;;;4273799;33;20439;-68
2021/11/06 05:02:01;;;;;;;24.65;4.95;;;;;;;;;;4273768;33;20535;-64
2021/11/06 05:04:27;;;;;;;28.33;5.20;;;;;;;;;;4275049;33;20120;-65
2021/11/06 05:06:53;;;;;;;24.27;4.40;;;;;;;;;;4274646;33;20495;-65
2021/11/06 05:09:19;;;;;;;27.80;4.20;;;;;;;;;;4249834;33;20123;-65
2021/11/06 05:11:45;;;;;;;33.35;6.18;;;;;;;;;;4274831;33;20307;-60
2021/11/06 05:14:11;;;;;;;32.58;4.93;;;;;;;;;;4275299;33;20184;-61
2021/11/06 05:16:37;;;;;;;27.50;5.05;;;;;;;;;;4275194;33;20105;-61
2021/11/06 05:19:03;;;;;;;25.30;4.78;;;;;;;;;;4275221;33;20160;-61
2021/11/06 05:21:36;;;;;;;36.67;4.90;;;;;;;;;;4275010;33;20595;-66
2021/11/06 05:24:04;;;;;;;23.08;3.80;;;;;;;;;;4275399;33;20100;-65
2021/11/06 05:26:29;;;;;;;26.17;5.03;;;;;;;;;;4275030;33;20088;-64
2021/11/06 05:28:56;;;;;;;28.05;5.22;;;;;;;;;;4274846;33;20127;-65
2021/11/06 05:31:22;;;;;;;23.35;4.03;;;;;;;;;;4274898;33;20123;-66
2021/11/06 05:33:48;;;;;;;27.08;4.32;;;;;;;;;;4275135;33;20116;-66
2021/11/06 05:36:14;;;;;;;23.50;4.47;;;;;;;;;;4275691;33;20104;-66
2021/11/06 05:38:40;;;;;;;24.77;4.03;;;;;;;;;;4275317;33;20543;-66
2021/11/06 05:41:05;;;;;;;16.65;3.80;;;;;;;;;;4277404;33;20118;-66
2021/11/06 05:43:31;;;;;;;36.80;7.25;;;;;;;;;;4276783;33;20460;-66
2021/11/06 05:45:58;;;;;;;30.55;6.37;;;;;;;;;;4275933;33;20175;-66
2021/11/06 05:48:24;;;;;;;32.42;6.68;;;;;;;;;;4274815;33;20104;-66
2021/11/06 05:50:49;;;;;;;18.50;4.60;;;;;;;;;;4273244;33;20123;-66
2021/11/06 05:53:15;;;;;;;32.08;5.80;;;;;;;;;;4274742;33;20104;-67
2021/11/06 05:55:41;;;;;;;31.48;6.57;;;;;;;;;;4274807;33;20459;-66
2021/11/06 05:58:08;;;;;;;30.12;5.57;;;;;;;;;;4274614;33;20472;-66
2021/11/06 06:00:34;;;;;;;29.67;4.53;;;;;;;;;;4273376;33;20098;-69
2021/11/06 06:03:00;;;;;;;11.88;3.25;;;;;;;;;;4271629;33;20116;-71
2021/11/06 06:05:26;;;;;;;25.90;5.57;;;;;;;;;;4275866;33;20084;-69
2021/11/06 06:07:52;;;;;;;27.45;4.87;;;;;;;;;;4275287;33;20105;-68
2021/11/06 06:10:18;;;;;;;21.65;5.07;;;;;;;;;;4274568;33;20130;-69
2021/11/06 06:12:49;;;;;;;35.88;6.70;;;;;;;;;;4275885;33;20111;-71
2021/11/06 06:15:16;;;;;;;33.90;6.25;;;;;;;;;;4276988;33;20084;-71
2021/11/06 06:17:41;;;;;;;5.57;2.22;;;;;;;;;;4261167;33;20115;-68
2021/11/06 06:20:08;;;;;;;22.92;4.15;;;;;;;;;;4275542;33;20561;-69
2021/11/06 06:22:34;;;;;;;27.02;4.45;;;;;;;;;;4263414;33;20104;-69
2021/11/06 06:25:00;;;;;;;22.65;4.75;;;;;;;;;;4276476;33;20515;-69
2021/11/06 06:27:26;;;;;;;21.30;4.62;;;;;;;;;;4275201;33;20100;-69
2021/11/06 06:29:52;;;;;;;19.40;4.22;;;;;;;;;;4275284;33;20122;-70
2021/11/06 06:32:18;;;;;;;28.95;6.07;;;;;;;;;;4275049;33;20119;-69
2021/11/06 06:34:44;;;;;;;17.83;4.65;;;;;;;;;;4276414;33;20433;-68
2021/11/06 06:37:10;;;;;;;15.57;5.10;;;;;;;;;;4276750;33;20113;-69
2021/11/06 06:39:35;;;;;;;17.40;4.28;;;;;;;;;;4276495;33;20100;-69
2021/11/06 06:42:01;;;;;;;22.27;4.97;;;;;;;;;;4263196;33;20100;-68
2021/11/06 06:44:27;;;;;;;19.50;4.43;;;;;;;;;;4276372;33;20120;-68
2021/11/06 06:46:53;;;;;;;27.33;4.40;;;;;;;;;;4276118;33;20092;-68
2021/11/06 06:49:19;;;;;;;26.25;6.00;;;;;;;;;;4276274;33;20452;-71
2021/11/06 06:51:45;;;;;;;18.75;4.85;;;;;;;;;;4262933;33;20116;-65
2021/11/06 06:54:11;;;;;;;35.90;5.90;;;;;;;;;;4274748;33;20465;-65
2021/11/06 06:56:37;;;;;;;28.80;5.85;;;;;;;;;;4276296;33;20131;-65
2021/11/06 06:59:02;;;;;;;27.23;4.90;;;;;;;;;;4276077;33;20227;-65
2021/11/06 07:01:28;;;;;;;33.72;6.57;;;;;;;;;;4276233;33;20121;-65
2021/11/06 07:03:54;;;;;;;29.55;6.25;;;;;;;;;;4276165;33;20103;-66
2021/11/06 07:06:20;;;;;;;27.75;5.97;;;;;;;;;;4262990;33;20104;-66
2021/11/06 07:08:46;;;;;;;33.55;5.80;;;;;;;;;;4276122;33;20199;-66
2021/11/06 07:11:12;;;;;;;35.00;6.90;;;;;;;;;;4276135;33;20135;-66
2021/11/06 07:13:38;;;;;;;28.30;5.55;;;;;;;;;;4276392;33;20138;-66
2021/11/06 07:16:05;;;;;;;37.55;6.10;;;;;;;;;;4276075;33;20516;-66
2021/11/06 07:18:31;;;;;;;36.38;6.97;;;;;;;;;;4262664;33;20585;-66
2021/11/06 07:20:57;;;;;;;29.55;5.53;;;;;;;;;;4276157;33;20203;-66
2021/11/06 07:23:22;;;;;;;35.90;6.80;;;;;;;;;;4262483;33;20143;-66
2021/11/06 07:25:48;;;;;;;41.13;7.57;;;;;;;;;;4262702;33;20131;-66
2021/11/06 07:28:14;;;;;;;34.05;6.25;;;;;;;;;;4276031;33;20099;-66
2021/11/06 07:30:40;;;;;;;38.05;6.22;;;;;;;;;;4275369;33;20099;-66
2021/11/06 07:33:06;;;;;;;37.78;7.03;;;;;;;;;;4275730;33;20127;-66
2021/11/06 07:35:32;;;;;;;19.83;4.25;;;;;;;;;;4262326;33;20485;-66
2021/11/06 07:37:58;;;;;;;42.30;6.95;;;;;;;;;;4275597;33;20531;-66
2021/11/06 07:40:24;;;;;;;51.22;7.75;;;;;;;;;;4276046;33;20190;-67
2021/11/06 07:42:50;;;;;;;37.72;7.43;;;;;;;;;;4262193;33;20136;-66
2021/11/06 07:45:18;;;;;;;43.28;7.07;;;;;;;;;;4275747;33;20124;-66
2021/11/06 07:47:43;;;;;;;30.98;5.47;;;;;;;;;;4262526;33;20091;-66
2021/11/06 07:50:10;;;;;;;45.35;8.23;;;;;;;;;;4275836;33;20198;-66
2021/11/06 07:52:36;;;;;;;56.83;7.65;;;;;;;;;;4262533;33;20088;-66
2021/11/06 07:55:02;;;;;;;40.80;8.45;;;;;;;;;;4262382;33;20108;-67
2021/11/06 07:57:28;;;;;;;41.72;8.00;;;;;;;;;;4262709;33;20186;-67
2021/11/06 07:59:54;;;;;;;39.88;8.35;;;;;;;;;;4275795;33;20108;-66
2021/11/06 08:02:20;;;;;;;41.67;7.95;;;;;;;;;;4275394;33;20093;-67
2021/11/06 08:04:46;;;;;;;47.03;7.87;;;;;;;;;;4275419;33;20136;-66
2021/11/06 08:07:12;;;;;;;44.25;6.07;;;;;;;;;;4262191;33;20107;-66
2021/11/06 08:09:38;;;;;;;34.95;8.77;;;;;;;;;;4275455;33;20550;-66
2021/11/06 08:12:04;;;;;;;54.90;11.25;;;;;;;;;;4275300;33;20108;-67
2021/11/06 08:14:30;;;;;;;41.53;6.53;;;;;;;;;;4275271;33;20154;-66
2021/11/06 08:16:56;;;;;;;42.70;8.80;;;;;;;;;;4275142;33;20527;-66
2021/11/06 08:19:24;;;;;;;39.75;7.12;;;;;;;;;;4275220;33;20112;-66
2021/11/06 08:21:51;;;;;;;24.67;5.62;;;;;;;;;;4275232;33;20112;-66
2021/11/06 08:24:22;;;;;;;41.95;6.87;;;;;;;;;;4275488;33;20188;-66
2021/11/06 08:26:48;;;;;;;27.48;5.12;;;;;;;;;;4275279;33;20099;-66
2021/11/06 08:29:14;;;;;;;33.50;5.45;;;;;;;;;;4262085;33;20542;-66
2021/11/06 08:31:40;;;;;;;33.63;7.20;;;;;;;;;;4275273;33;20303;-66
2021/11/06 08:34:06;;;;;;;28.98;6.00;;;;;;;;;;4275141;33;20107;-66
2021/11/06 08:36:33;;;;;;;35.53;6.78;;;;;;;;;;4275170;33;20107;-67
2021/11/06 08:38:58;;;;;;;15.63;4.85;;;;;;;;;;4275240;33;20511;-67
2021/11/06 08:41:25;;;;;;;41.37;8.38;;;;;;;;;;4275332;33;20210;-67
2021/11/06 08:43:50;;;;;;;32.30;6.68;;;;;;;;;;4275351;33;20104;-66
2021/11/06 08:46:16;;;;;;;36.22;7.57;;;;;;;;;;4275209;33;20219;-66
2021/11/06 08:48:42;;;;;;;30.92;6.25;;;;;;;;;;4275145;33;20124;-66
2021/11/06 08:51:08;;;;;;;39.45;7.30;;;;;;;;;;4275180;33;20211;-67
2021/11/06 08:53:34;;;;;;;25.27;3.97;;;;;;;;;;4275396;33;20109;-66
2021/11/06 08:56:00;;;;;;;33.33;7.03;;;;;;;;;;4261712;33;20147;-66
2021/11/06 08:58:26;;;;;;;37.00;6.62;;;;;;;;;;4274924;33;20111;-66
2021/11/06 09:00:52;;;;;;;26.37;5.93;;;;;;;;;;4275275;33;20463;-66
2021/11/06 09:03:20;;;;;;;21.00;5.80;;;;;;;;;;4275003;33;20120;-66
2021/11/06 09:05:50;;;;;;;26.50;4.45;;;;;;;;;;4274919;33;20433;-67
2021/11/06 09:08:24;;;;;;;13.18;3.40;;;;;;;;;;4274682;33;20112;-67
2021/11/06 09:10:50;;;;;;;19.05;4.40;;;;;;;;;;4275377;33;20119;-66
2021/11/06 09:13:15;;;;;;;33.28;8.13;;;;;;;;;;4275317;33;20142;-66
2021/11/06 09:15:41;;;;;;;30.85;6.05;;;;;;;;;;4274942;33;20112;-66
2021/11/06 09:18:10;;;;;;;39.13;8.25;;;;;;;;;;4274719;33;20115;-67
2021/11/06 09:20:35;;;;;;;23.95;4.45;;;;;;;;;;4275173;33;20084;-67
2021/11/06 09:23:01;;;;;;;23.65;4.50;;;;;;;;;;4274658;33;20196;-67
2021/11/06 09:25:27;;;;;;;21.10;5.10;;;;;;;;;;4274904;33;20565;-67
2021/11/06 09:27:53;;;;;;;17.52;6.30;;;;;;;;;;4274954;33;20479;-67
2021/11/06 09:30:19;;;;;;;21.02;5.30;;;;;;;;;;4275026;33;20135;-67
2021/11/06 09:32:45;;;;;;;16.85;4.12;;;;;;;;;;4275030;33;20469;-66
2021/11/06 09:35:12;;;;;;;16.00;3.87;;;;;;;;;;4275110;33;20139;-67
2021/11/06 09:37:38;;;;;;;17.52;3.78;;;;;;;;;;4274822;33;20100;-67
2021/11/06 09:40:08;;;;;;;28.45;4.97;;;;;;;;;;4274810;33;20107;-67
2021/11/06 09:42:35;;;;;;;26.00;5.68;;;;;;;;;;4261358;33;20112;-67
2021/11/06 09:45:01;;;;;;;9.38;2.90;;;;;;;;;;4261580;33;20602;-67
2021/11/06 09:47:27;;;;;;;24.77;4.68;;;;;;;;;;4274651;33;20100;-67
2021/11/06 09:49:54;;;;;;;22.62;4.37;;;;;;;;;;4274749;33;20498;-67
2021/11/06 09:52:20;;;;;;;17.02;4.07;;;;;;;;;;4274704;33;20182;-67
2021/11/06 09:54:46;;;;;;;28.35;6.95;;;;;;;;;;4273890;33;20171;-67
2021/11/06 09:57:12;;;;;;;10.00;3.15;;;;;;;;;;4274866;33;20165;-67
2021/11/06 09:59:38;;;;;;;27.00;5.50;;;;;;;;;;4274939;33;20507;-67
2021/11/06 10:02:04;;;;;;;14.18;3.85;;;;;;;;;;4274557;33;20124;-67
2021/11/06 10:04:30;;;;;;;17.17;3.25;;;;;;;;;;4274524;33;20522;-67
2021/11/06 10:07:29;;;;;;;21.85;3.47;;;;;;;;;;4274711;33;20116;-67
2021/11/06 10:09:58;;;;;;;8.70;2.03;;;;;;;;;;4249960;33;20496;-67
2021/11/06 10:12:24;;;;;;;11.45;2.97;;;;;;;;;;4261401;33;20112;-66
2021/11/06 10:15:06;;;;;;;9.68;3.17;;;;;;;;;;4274327;33;20525;-66
2021/11/06 10:17:35;;;;;;;18.23;3.25;;;;;;;;;;4274185;33;20543;-66
2021/11/06 10:20:40;;;;;;;5.10;1.70;;;;;;;;;;4274389;33;20108;-65
2021/11/06 10:23:07;;;;;;;12.15;2.83;;;;;;;;;;4229299;33;20144;-67
2021/11/06 10:25:34;;;;;;;23.83;3.83;;;;;;;;;;4229300;33;20119;-67
2021/11/06 10:28:07;;;;;;;22.65;4.78;;;;;;;;;;4251219;33;20116;-66
2021/11/06 10:30:38;;;;;;;5.25;1.90;;;;;;;;;;4274360;33;20165;-67
2021/11/06 10:33:10;;;;;;;26.62;5.12;;;;;;;;;;4274277;33;20184;-66
2021/11/06 10:35:46;;;;;;;23.92;4.78;;;;;;;;;;4274232;33;20115;-66
2021/11/06 10:38:15;;;;;;;20.98;4.00;;;;;;;;;;4274115;33;20210;-67
2021/11/06 10:40:44;;;;;;;33.40;5.43;;;;;;;;;;4274440;33;20661;-66
2021/11/06 10:43:11;;;;;;;28.23;4.22;;;;;;;;;;4274202;33;20116;-66
2021/11/06 10:45:46;;;;;;;18.45;3.55;;;;;;;;;;4274431;33;20138;-66
2021/11/06 10:48:14;;;;;;;23.17;4.10;;;;;;;;;;4274129;33;20218;-66
2021/11/06 10:50:42;;;;;;;23.25;5.43;;;;;;;;;;4274463;33;20096;-66
2021/11/06 10:53:09;;;;;;;37.63;5.18;;;;;;;;;;4260718;33;20131;-66
2021/11/06 10:55:36;;;;;;;27.77;4.72;;;;;;;;;;4274033;33;20533;-66
2021/11/06 10:58:03;;;;;;;20.12;4.18;;;;;;;;;;4273885;33;20143;-66
2021/11/06 11:00:29;;;;;;;32.53;5.32;;;;;;;;;;4272725;33;20171;-66
2021/11/06 11:02:55;;;;;;;22.27;6.03;;;;;;;;;;4274201;33;20116;-66
2021/11/06 11:05:30;;;;;;;32.63;6.70;;;;;;;;;;4274480;33;20120;-66
2021/11/06 11:08:07;;;;;;;21.62;2.72;;;;;;;;;;4262952;33;20466;-67
2021/11/06 11:10:33;;;;;;;41.15;6.18;;;;;;;;;;4276925;33;20088;-65
2021/11/06 11:13:07;;;;;;;28.90;7.20;;;;;;;;;;4276389;33;20116;-65
2021/11/06 11:15:33;;;;;;;31.67;8.30;;;;;;;;;;4276975;33;20084;-67
2021/11/06 11:17:59;;;;;;;44.20;6.82;;;;;;;;;;4277349;33;20120;-66
2021/11/06 11:20:27;;;;;;;25.80;5.12;;;;;;;;;;4277901;33;20536;-66
2021/11/06 11:23:22;;;;;;;19.87;3.62;;;;;;;;;;4277133;33;20122;-66
2021/11/06 11:25:48;;;;;;;2.78;1.95;;;;;;;;;;4254641;33;20120;-66
2021/11/06 11:28:14;;;;;;;24.70;4.78;;;;;;;;;;4277497;33;20520;-67
2021/11/06 11:30:41;;;;;;;24.12;4.15;;;;;;;;;;4278161;33;20116;-67
2021/11/06 11:33:08;;;;;;;19.75;6.03;;;;;;;;;;4279826;33;20116;-66
2021/11/06 11:35:34;;;;;;;30.55;5.25;;;;;;;;;;4280226;33;20088;-66
2021/11/06 11:38:00;;;;;;;34.22;6.97;;;;;;;;;;4275934;33;20111;-65
2021/11/06 11:40:31;;;;;;;38.70;7.28;;;;;;;;;;4276203;33;20094;-67
2021/11/06 11:43:10;;;;;;;33.78;5.45;;;;;;;;;;4275831;33;20099;-67
2021/11/06 11:45:45;;;;;;;41.17;7.07;;;;;;;;;;4262932;33;20130;-66
2021/11/06 11:48:12;;;;;;;18.77;3.30;;;;;;;;;;4275730;33;20103;-66
2021/11/06 11:50:41;;;;;;;32.85;5.53;;;;;;;;;;4250899;33;20119;-66
2021/11/06 11:53:09;;;;;;;29.90;7.35;;;;;;;;;;4275769;33;20128;-65
2021/11/06 11:55:36;;;;;;;27.92;5.10;;;;;;;;;;4262921;33;20189;-65
2021/11/06 11:58:22;;;;;;;17.55;4.50;;;;;;;;;;4262566;33;20145;-65
2021/11/06 12:00:55;;;;;;;18.67;4.40;;;;;;;;;;4275897;33;20096;-65
2021/11/06 12:03:34;;;;;;;9.65;3.12;;;;;;;;;;4275608;33;20111;-66
2021/11/06 12:06:01;;;;;;;37.03;5.75;;;;;;;;;;4275873;33;20096;-65
2021/11/06 12:08:30;;;;;;;38.45;5.97;;;;;;;;;;4275717;33;20120;-65
2021/11/06 12:10:59;;;;;;;25.10;4.57;;;;;;;;;;4275801;33;20123;-66
2021/11/06 12:13:29;;;;;;;25.95;3.50;;;;;;;;;;4275466;33;20116;-66
2021/11/06 12:16:12;;;;;;;29.42;4.85;;;;;;;;;;4275471;33;20215;-65
2021/11/06 12:18:40;;;;;;;34.63;4.57;;;;;;;;;;4275094;33;20119;-65
2021/11/06 12:21:16;;;;;;;18.75;3.80;;;;;;;;;;4275600;33;20112;-65
2021/11/06 12:23:52;;;;;;;17.30;3.90;;;;;;;;;;4275567;33;20599;-65
2021/11/06 12:26:24;;;;;;;14.90;2.95;;;;;;;;;;4275809;33;20088;-65
2021/11/06 12:29:03;;;;;;;17.95;3.15;;;;;;;;;;4275484;33;20155;-65
2021/11/06 12:31:37;;;;;;;6.12;2.55;;;;;;;;;;4275465;33;20120;-65
2021/11/06 12:34:04;;;;;;;22.95;3.45;;;;;;;;;;4275546;33;20186;-65
2021/11/06 12:36:30;;;;;;;17.52;3.58;;;;;;;;;;4275375;33;20120;-65
2021/11/06 12:38:57;;;;;;;8.25;2.45;;;;;;;;;;4275301;33;20590;-65
2021/11/06 12:41:35;;;;;;;21.25;4.28;;;;;;;;;;4275465;33;20108;-65
2021/11/06 12:44:02;;;;;;;21.85;4.22;;;;;;;;;;4275320;33;20124;-65
2021/11/06 12:46:33;;;;;;;18.85;3.42;;;;;;;;;;4275951;33;20084;-65
2021/11/06 12:49:01;;;;;;;13.23;3.53;;;;;;;;;;4275804;33;20274;-65
2021/11/06 12:51:30;;;;;;;25.00;3.37;;;;;;;;;;4275511;33;20107;-65
2021/11/06 12:54:20;;;;;;;6.87;1.80;;;;;;;;;;4275382;33;20115;-65
2021/11/06 12:56:54;;;;;;;15.98;3.40;;;;;;;;;;4275329;33;20511;-65
2021/11/06 12:59:21;;;;;;;22.73;3.30;;;;;;;;;;4262064;33;20127;-65
2021/11/06 13:02:13;;;;;;;20.00;4.47;;;;;;;;;;4262230;33;20472;-65
2021/11/06 13:04:39;;;;;;;21.40;4.60;;;;;;;;;;4273069;33;20143;-65
2021/11/06 13:07:06;;;;;;;12.73;3.67;;;;;;;;;;4275188;33;20136;-65
2021/11/06 13:09:33;;;;;;;9.65;3.83;;;;;;;;;;4274930;33;20112;-65
2021/11/06 13:12:12;;;;;;;10.38;2.90;;;;;;;;;;4274997;33;20122;-65
2021/11/06 13:14:47;;;;;;;14.70;4.30;;;;;;;;;;4261612;33;20186;-65
2021/11/06 13:17:19;;;;;;;20.15;2.90;;;;;;;;;;4274944;33;20096;-65
2021/11/06 13:19:47;;;;;;;12.50;3.37;;;;;;;;;;4275019;33;20507;-65
2021/11/06 13:22:16;;;;;;;25.35;4.32;;;;;;;;;;4275018;33;20108;-65
2021/11/06 13:24:50;;;;;;;13.32;1.95;;;;;;;;;;4275007;33;20108;-65
2021/11/06 13:27:35;;;;;;;12.40;2.62;;;;;;;;;;4249811;33;20124;-65
2021/11/06 13:30:23;;;;;;;20.95;4.15;;;;;;;;;;4260616;33;20247;-65
2021/11/06 13:33:19;;;;;;;16.95;2.97;;;;;;;;;;4274597;33;20112;-65
2021/11/06 13:36:03;;;;;;;22.10;3.47;;;;;;;;;;4270467;33;20096;-65
2021/11/06 13:38:42;;;;;;;12.95;2.40;;;;;;;;;;4274795;33;20127;-65
2021/11/06 13:41:18;;;;;;;7.32;2.55;;;;;;;;;;4275265;33;20122;-65
2021/11/06 13:43:46;;;;;;;15.18;3.60;;;;;;;;;;4274769;33;20104;-65
2021/11/06 13:46:25;;;;;;;8.88;1.40;;;;;;;;;;4275037;33;20602;-65
2021/11/06 13:49:18;;;;;;;7.15;2.35;;;;;;;;;;4261509;33;20575;-65
2021/11/06 13:52:05;;;;;;;8.77;2.58;;;;;;;;;;4274728;33;20213;-65
2021/11/06 13:54:33;;;;;;;17.10;4.05;;;;;;;;;;4274392;33;20150;-65
2021/11/06 13:57:14;;;;;;;15.45;3.47;;;;;;;;;;4274585;33;20092;-65
2021/11/06 13:59:48;;;;;;;8.82;2.45;;;;;;;;;;4274636;33;20104;-66
2021/11/06 14:02:16;;;;;;;19.95;3.92;;;;;;;;;;4274506;33;20154;-66
2021/11/06 14:04:47;;;;;;;12.52;3.50;;;;;;;;;;4274409;33;20112;-65
2021/11/06 14:07:15;;;;;;;10.80;2.22;;;;;;;;;;4274681;33;20108;-65
2021/11/06 14:10:07;;;;;;;25.20;5.60;;;;;;;;;;4274437;33;20599;-65
2021/11/06 14:12:40;;;;;;;2.08;1.20;;;;;;;;;;4274485;33;20698;-65
2021/11/06 14:15:14;;;;;;;11.90;2.50;;;;;;;;;;4274291;33;20096;-65
2021/11/06 14:17:48;;;;;;;17.98;3.55;;;;;;;;;;4274287;33;20140;-67
2021/11/06 14:20:16;;;;;;;14.40;4.20;;;;;;;;;;4260787;33;20199;-65
2021/11/06 14:22:49;;;;;;;20.75;3.90;;;;;;;;;;4269927;33;20147;-65
2021/11/06 14:25:27;;;;;;;24.20;3.87;;;;;;;;;;4261320;33;20639;-65
2021/11/06 14:28:06;;;;;;;15.95;4.03;;;;;;;;;;4274191;33;20526;-65
2021/11/06 14:30:44;;;;;;;8.93;2.67;;;;;;;;;;4274007;33;20180;-66
2021/11/06 14:33:10;;;;;;;29.00;6.03;;;;;;;;;;4271562;33;20105;-61
2021/11/06 14:35:39;;;;;;;5.15;1.92;;;;;;;;;;4249973;33;20543;-61
2021/11/06 14:38:05;;;;;;;21.02;4.80;;;;;;;;;;4257798;33;20563;-61
2021/11/06 14:40:31;;;;;;;17.30;2.60;;;;;;;;;;4260097;33;20132;-61
2021/11/06 14:43:11;;;;;;;11.65;2.75;;;;;;;;;;4265305;33;20116;-61
2021/11/06 14:45:37;;;;;;;31.65;3.87;;;;;;;;;;4276100;33;20112;-61
2021/11/06 14:48:04;;;;;;;19.70;3.72;;;;;;;;;;4262017;33;20706;-61
2021/11/06 14:50:31;;;;;;;26.48;4.03;;;;;;;;;;4262450;33;20120;-63
2021/11/06 14:53:09;;;;;;;9.82;2.35;;;;;;;;;;4275704;33;20096;-65
2021/11/06 14:55:35;;;;;;;16.92;3.72;;;;;;;;;;4275969;33;20562;-63